Time;durP1;ratioP1;P1;durP2;ratioP2;P2;SDS_P1;SDS_P2;PMS_P1;PMS_P2;Temp;Humidity;BMP_temperature;BMP_pressure;BME280_temperature;BME280_humidity;BME280_pressure;Samples;Min_cycle;Max_cycle;Signal;HPM_P1;HPM_P2
2022/02/11 00:02:19;;;;;;;16.55;8.10;;;;;;;3.71;100.00;99476.38;5065956;28;20794;-87
2022/02/11 00:07:32;;;;;;;13.93;7.18;;;;;;;3.77;100.00;99472.31;5068652;28;20131;-87
2022/02/11 00:10:00;;;;;;;12.15;6.60;;;;;;;3.77;100.00;99475.84;5052780;28;20049;-88
2022/02/11 00:12:28;;;;;;;12.63;6.57;;;;;;;3.78;100.00;99477.56;5050589;28;20071;-88
2022/02/11 00:15:04;;;;;;;13.07;6.22;;;;;;;3.66;100.00;99459.81;5058718;28;20127;-88
2022/02/11 00:17:31;;;;;;;11.27;7.05;;;;;;;3.74;100.00;99478.81;5051962;28;20106;-88
2022/02/11 00:19:59;;;;;;;18.17;6.35;;;;;;;3.61;100.00;99457.50;5062199;28;20044;-87
2022/02/11 00:22:26;;;;;;;12.68;6.65;;;;;;;3.69;100.00;99456.84;5068805;28;20052;-87
2022/02/11 00:24:54;;;;;;;18.00;6.70;;;;;;;3.71;100.00;99458.41;5056164;28;20465;-87
2022/02/11 00:33:12;;;;;;;7.78;5.10;;;;;;;3.99;100.00;99460.50;5061831;28;20048;-88
2022/02/11 00:35:44;;;;;;;11.07;5.97;;;;;;;3.93;100.00;99461.06;5067600;28;20059;-88
2022/02/11 00:38:15;;;;;;;11.02;6.88;;;;;;;3.99;100.00;99472.16;5066485;28;20084;-87
2022/02/11 00:41:20;;;;;;;14.18;6.43;;;;;;;4.13;100.00;99464.69;5071299;28;20045;-88
2022/02/11 01:03:01;;;;;;;7.40;3.85;;;;;;;4.54;100.00;99465.50;5070763;28;20174;-87
2022/02/11 01:05:28;;;;;;;6.40;3.35;;;;;;;4.60;100.00;99467.63;5067555;28;20525;-86
2022/02/11 01:07:55;;;;;;;6.75;4.40;;;;;;;4.58;100.00;99473.16;5060992;28;20044;-87
2022/02/11 01:10:23;;;;;;;6.53;3.80;;;;;;;4.61;100.00;99470.19;5069720;28;20048;-87
2022/02/11 01:12:50;;;;;;;6.47;3.83;;;;;;;4.57;100.00;99462.53;5069241;28;20052;-87
2022/02/11 01:15:22;;;;;;;10.07;4.05;;;;;;;4.62;100.00;99460.25;5092068;28;20735;-86
2022/02/11 01:17:52;;;;;;;7.80;3.55;;;;;;;4.57;100.00;99452.59;5096565;28;20044;-87
2022/02/11 01:20:27;;;;;;;7.72;4.20;;;;;;;4.57;100.00;99457.97;5096570;28;20048;-87
2022/02/11 01:23:13;;;;;;;9.18;4.13;;;;;;;4.67;100.00;99473.34;5089333;28;20048;-87
2022/02/11 01:28:39;;;;;;;6.38;3.60;;;;;;;4.61;100.00;99464.81;5043754;28;20116;-86
2022/02/11 01:31:16;;;;;;;6.90;3.85;;;;;;;4.58;100.00;99456.16;5062319;28;20049;-86
2022/02/11 01:34:08;;;;;;;12.35;4.57;;;;;;;4.39;100.00;99440.81;5090397;28;20067;-86
2022/02/11 01:37:03;;;;;;;10.88;4.35;;;;;;;4.45;100.00;99450.19;5095410;28;20062;-87
2022/02/11 01:40:07;;;;;;;12.02;5.10;;;;;;;4.47;100.00;99454.44;5081893;28;20047;-87
2022/02/11 01:53:37;;;;;;;9.23;5.47;;;;;;;4.36;100.00;99465.31;5045636;28;20147;-87
2022/02/11 01:56:16;;;;;;;10.70;4.97;;;;;;;4.39;100.00;99467.72;5080936;28;20047;-87
2022/02/11 02:13:00;;;;;;;10.48;5.60;;;;;;;4.12;100.00;99455.75;5063961;28;20064;-87
2022/02/11 02:21:41;;;;;;;9.80;4.63;;;;;;;4.06;100.00;99462.53;5092587;28;20188;-87
2022/02/11 02:24:22;;;;;;;8.18;4.45;;;;;;;4.01;100.00;99467.47;5053006;28;20056;-85
2022/02/11 02:27:21;;;;;;;10.32;4.75;;;;;;;3.94;100.00;99452.84;5052990;28;20489;-87
2022/02/11 02:33:09;;;;;;;13.25;4.70;;;;;;;3.89;100.00;99463.16;5066312;28;20051;-87
2022/02/11 02:35:48;;;;;;;7.82;5.30;;;;;;;3.92;100.00;99472.81;5071918;28;20048;-86
2022/02/11 02:57:58;;;;;;;12.65;6.03;;;;;;;3.54;100.00;99473.31;5111570;27;20074;-86
2022/02/11 03:50:19;;;;;;;2.70;1.85;;;;;;;2.02;100.00;99595.88;5128439;28;20096;-86
2022/02/11 04:20:57;;;;;;;3.05;2.45;;;;;;;1.70;100.00;99676.94;5109202;28;20055;-86
2022/02/11 04:24:21;;;;;;;1.80;1.67;;;;;;;1.60;100.00;99663.41;5113534;27;20486;-86
2022/02/11 04:56:33;;;;;;;3.58;2.50;;;;;;;1.83;100.00;99760.00;5113624;28;20180;-87
2022/02/11 05:01:46;;;;;;;3.88;2.38;;;;;;;1.65;100.00;99760.38;5113256;28;19927;-87
2022/02/11 05:04:12;;;;;;;3.22;2.47;;;;;;;1.73;100.00;99763.38;5111482;28;20134;-86
2022/02/11 05:06:39;;;;;;;3.47;2.28;;;;;;;1.67;100.00;99739.72;5113286;28;20086;-87
2022/02/11 05:09:07;;;;;;;4.57;2.78;;;;;;;1.71;100.00;99767.97;5119388;27;20139;-86
2022/02/11 05:11:34;;;;;;;3.78;2.80;;;;;;;1.70;100.00;99779.69;5112736;28;20159;-86
2022/02/11 05:14:01;;;;;;;3.50;2.58;;;;;;;1.73;100.00;99781.25;5106198;28;20161;-86
2022/02/11 05:16:27;;;;;;;4.38;2.40;;;;;;;1.65;100.00;99783.66;5112319;28;20498;-85
2022/02/11 05:18:54;;;;;;;4.40;3.03;;;;;;;1.74;100.00;99794.56;5112482;28;20039;-86
2022/02/11 05:21:21;;;;;;;5.63;3.33;;;;;;;1.59;100.00;99767.03;5112821;27;20051;-86
2022/02/11 05:23:47;;;;;;;4.68;3.00;;;;;;;1.72;100.00;99798.34;5116097;27;20071;-86
2022/02/11 05:26:16;;;;;;;4.85;2.92;;;;;;;1.60;100.00;99797.41;5112878;28;20078;-85
2022/02/11 05:28:43;;;;;;;5.65;3.70;;;;;;;1.64;100.00;99806.06;5112079;28;20139;-86
2022/02/11 05:31:10;;;;;;;5.70;2.92;;;;;;;1.57;100.00;99808.34;5109758;28;20071;-86
2022/02/11 05:33:37;;;;;;;7.55;3.67;;;;;;;1.57;100.00;99809.19;5111712;28;20107;-88
2022/02/11 05:36:04;;;;;;;4.03;3.03;;;;;;;1.48;100.00;99809.88;5112383;28;20047;-86
2022/02/11 05:38:31;;;;;;;5.55;3.05;;;;;;;1.54;100.00;99820.13;5110725;27;20068;-86
2022/02/11 05:40:58;;;;;;;3.55;3.08;;;;;;;1.50;100.00;99815.97;5112032;28;20044;-86
2022/02/11 05:43:26;;;;;;;4.30;3.13;;;;;;;1.55;100.00;99839.75;5111515;28;20324;-86
2022/02/11 05:45:52;;;;;;;4.82;3.70;;;;;;;1.50;100.00;99832.03;5111802;28;20051;-86
2022/02/11 05:48:19;;;;;;;6.00;3.55;;;;;;;1.52;100.00;99845.31;5110222;28;20561;-86
2022/02/11 05:50:46;;;;;;;3.85;3.00;;;;;;;1.39;100.00;99826.63;5112034;28;20047;-86
2022/02/11 05:53:12;;;;;;;4.10;2.88;;;;;;;1.46;100.00;99848.44;5121424;27;20051;-86
2022/02/11 05:55:39;;;;;;;3.65;3.10;;;;;;;1.44;100.00;99843.19;5113550;27;20134;-85
2022/02/11 05:58:06;;;;;;;4.55;2.92;;;;;;;1.34;100.00;99850.19;5112452;28;20055;-86
2022/02/11 06:00:34;;;;;;;5.63;3.50;;;;;;;1.38;100.00;99857.88;5111277;28;20048;-86
2022/02/11 06:03:04;;;;;;;4.65;3.10;;;;;;;1.49;100.00;99875.03;5106374;28;20136;-85
2022/02/11 06:05:31;;;;;;;5.25;3.47;;;;;;;1.52;100.00;99878.38;5113541;28;20043;-85
2022/02/11 06:08:06;;;;;;;4.35;3.30;;;;;;;1.44;100.00;99877.19;5113832;28;20048;-85
2022/02/11 06:10:33;;;;;;;7.55;3.35;;;;;;;1.50;100.00;99885.63;5105510;28;20142;-85
2022/02/11 06:13:02;;;;;;;8.23;4.72;;;;;;;1.52;100.00;99915.00;5107911;28;20051;-86
2022/02/11 06:15:28;;;;;;;8.80;5.25;;;;;;;1.52;100.00;99909.66;5111076;28;20482;-86
2022/02/11 06:17:58;;;;;;;7.93;4.30;;;;;;;1.49;100.00;99915.22;5111823;28;20134;-85
2022/02/11 06:20:28;;;;;;;8.63;3.85;;;;;;;1.38;100.00;99887.34;5109604;28;20064;-85
2022/02/11 06:22:54;;;;;;;7.30;4.30;;;;;;;1.36;100.00;99891.13;5111491;27;20047;-85
2022/02/11 06:25:21;;;;;;;7.65;4.55;;;;;;;1.36;100.00;99878.59;5110475;28;20050;-86
2022/02/11 06:27:48;;;;;;;9.68;4.95;;;;;;;1.40;100.00;99920.28;5107022;28;20044;-86
2022/02/11 06:30:15;;;;;;;9.38;4.93;;;;;;;1.36;100.00;99928.66;5109658;28;20135;-86
2022/02/11 06:32:42;;;;;;;8.07;4.80;;;;;;;1.25;100.00;99924.03;5110143;28;20434;-86
2022/02/11 06:35:12;;;;;;;10.20;5.72;;;;;;;1.44;100.00;99949.53;5108057;28;20122;-86
2022/02/11 06:37:41;;;;;;;8.18;5.53;;;;;;;1.26;100.00;99927.56;5113588;28;20474;-86
2022/02/11 06:40:10;;;;;;;9.55;5.72;;;;;;;1.31;100.00;99936.13;5109289;28;20081;-86
2022/02/11 06:42:37;;;;;;;8.70;5.55;;;;;;;1.41;100.00;99951.44;5110895;28;20061;-86
2022/02/11 06:45:07;;;;;;;7.80;4.88;;;;;;;1.47;100.00;99952.84;5111786;28;20083;-86
2022/02/11 06:47:37;;;;;;;15.07;5.60;;;;;;;1.54;100.00;99962.19;5111013;28;20047;-86
2022/02/11 06:50:04;;;;;;;8.00;5.00;;;;;;;1.42;100.00;99966.56;5111158;28;20511;-86
2022/02/11 06:52:32;;;;;;;7.47;4.70;;;;;;;1.55;100.00;99979.09;5110597;28;20043;-86
2022/02/11 06:54:59;;;;;;;9.18;5.30;;;;;;;1.42;100.00;99971.94;5106894;28;20047;-86
2022/02/11 06:57:25;;;;;;;8.38;4.97;;;;;;;1.54;100.00;99986.31;5110948;28;20079;-86
2022/02/11 06:59:52;;;;;;;8.40;5.38;;;;;;;1.53;100.00;99994.44;5111171;28;20047;-86
2022/02/11 07:02:20;;;;;;;8.65;5.00;;;;;;;1.57;100.00;100006.69;5111924;28;20051;-86
2022/02/11 07:04:47;;;;;;;9.30;5.05;;;;;;;1.52;100.00;100016.84;5110069;28;20052;-86
2022/02/11 07:07:14;;;;;;;9.98;5.32;;;;;;;1.41;100.00;100013.06;5116092;28;20071;-86
2022/02/11 07:09:42;;;;;;;9.38;5.65;;;;;;;1.50;100.00;100025.00;5117994;28;20044;-86
2022/02/11 07:12:10;;;;;;;7.88;5.10;;;;;;;1.50;100.00;100022.31;5106270;28;20043;-86
2022/02/11 07:14:37;;;;;;;7.63;5.43;;;;;;;1.50;100.00;100026.81;5109268;28;20046;-85
2022/02/11 07:17:04;;;;;;;8.30;5.05;;;;;;;1.55;100.00;100044.31;5111053;28;20071;-85
2022/02/11 07:19:31;;;;;;;11.20;5.57;;;;;;;1.58;100.00;100051.25;5110593;28;20449;-85
2022/02/11 07:22:01;;;;;;;8.05;4.78;;;;;;;1.51;100.00;100047.31;5110269;28;20147;-85
2022/02/11 07:24:27;;;;;;;12.70;5.05;;;;;;;1.56;100.00;100045.16;5109413;28;20056;-84
2022/02/11 07:26:56;;;;;;;9.35;6.93;;;;;;;1.59;100.00;100047.63;5111710;28;20474;-83
2022/02/11 07:29:23;;;;;;;14.20;5.32;;;;;;;1.63;100.00;100056.31;5108916;28;20487;-83
2022/02/11 07:31:49;;;;;;;9.55;5.68;;;;;;;1.70;100.00;100052.22;5114062;28;20054;-83
2022/02/11 07:34:16;;;;;;;22.45;6.70;;;;;;;1.74;100.00;100069.84;5110465;28;20051;-82
2022/02/11 07:36:43;;;;;;;10.73;5.68;;;;;;;1.70;100.00;100071.00;5100508;28;20052;-82
2022/02/11 07:39:10;;;;;;;8.38;5.47;;;;;;;1.72;100.00;100075.31;5115475;28;20479;-85
2022/02/11 07:41:37;;;;;;;11.00;5.10;;;;;;;1.84;100.00;100105.78;5122611;27;20050;-85
2022/02/11 07:44:07;;;;;;;14.18;4.55;;;;;;;1.82;100.00;100105.00;5116339;27;20082;-85
2022/02/11 07:46:34;;;;;;;6.50;4.15;;;;;;;1.79;100.00;100091.81;5116418;28;20044;-84
2022/02/11 07:49:01;;;;;;;12.68;4.70;;;;;;;1.89;100.00;100117.03;5113645;28;20067;-85
2022/02/11 07:51:28;;;;;;;37.67;6.07;;;;;;;1.89;100.00;100122.38;5116569;28;20463;-84
2022/02/11 07:53:55;;;;;;;9.00;3.95;;;;;;;1.91;100.00;100130.31;5115164;28;20257;-84
2022/02/11 07:56:22;;;;;;;49.65;7.00;;;;;;;1.89;100.00;100126.91;5112139;28;20375;-85
2022/02/11 07:58:49;;;;;;;8.02;3.72;;;;;;;1.96;100.00;100128.22;5115853;28;20138;-84
2022/02/11 08:01:19;;;;;;;32.88;5.70;;;;;;;2.01;100.00;100127.88;5114325;27;20044;-85
2022/02/11 08:03:50;;;;;;;6.85;3.70;;;;;;;2.02;100.00;100137.63;5119344;27;20043;-85
2022/02/11 08:06:17;;;;;;;16.85;5.03;;;;;;;2.00;100.00;100137.72;5122598;27;20046;-85
2022/02/11 08:08:44;;;;;;;5.30;3.20;;;;;;;1.92;100.00;100132.06;5106728;28;20471;-84
2022/02/11 08:11:11;;;;;;;5.38;2.70;;;;;;;1.94;100.00;100168.53;5111514;28;20050;-85
2022/02/11 08:13:38;;;;;;;9.73;3.30;;;;;;;1.86;100.00;100164.66;5109794;28;20092;-85
2022/02/11 08:16:06;;;;;;;7.75;2.53;;;;;;;1.81;100.00;100158.72;5113141;28;20055;-86
2022/02/11 08:18:35;;;;;;;5.55;2.60;;;;;;;1.77;100.00;100166.13;5113912;28;20044;-85
2022/02/11 08:21:02;;;;;;;30.42;5.45;;;;;;;1.79;100.00;100177.59;5115286;28;20740;-85
2022/02/11 08:23:29;;;;;;;8.55;2.63;;;;;;;1.85;100.00;100184.38;5111336;28;20051;-85
2022/02/11 08:25:57;;;;;;;10.77;2.97;;;;;;;1.72;100.00;100179.84;5114816;28;20097;-86
2022/02/11 08:28:24;;;;;;;6.50;2.40;;;;;;;1.83;100.00;100195.22;5108137;28;20406;-85
2022/02/11 08:30:51;;;;;;;11.02;2.78;;;;;;;1.82;100.00;100189.97;5095366;28;20131;-85
2022/02/11 08:33:21;;;;;;;5.00;3.10;;;;;;;1.92;100.00;100208.00;5107187;28;20043;-85
2022/02/11 08:35:50;;;;;;;15.60;3.40;;;;;;;1.86;100.00;100195.00;5115112;28;20050;-85
2022/02/11 08:38:17;;;;;;;9.23;3.13;;;;;;;1.95;100.00;100204.25;5115172;28;20057;-85
2022/02/11 08:40:44;;;;;;;5.32;3.13;;;;;;;1.89;100.00;100208.19;5106189;28;20475;-85
2022/02/11 08:43:10;;;;;;;4.53;2.92;;;;;;;2.06;100.00;100227.66;5094448;28;20147;-84
2022/02/11 08:45:40;;;;;;;5.53;3.50;;;;;;;2.06;100.00;100216.94;5120656;27;20067;-84
2022/02/11 08:48:08;;;;;;;4.57;2.67;;;;;;;2.13;100.00;100219.09;5132876;27;20383;-85
2022/02/11 08:50:35;;;;;;;6.25;2.97;;;;;;;2.15;100.00;100226.19;5114528;28;20055;-84
2022/02/11 08:53:04;;;;;;;10.82;2.75;;;;;;;2.08;100.00;100225.75;5114667;28;20051;-85
2022/02/11 08:55:31;;;;;;;6.07;3.05;;;;;;;2.20;100.00;100248.16;5128866;27;20047;-84
2022/02/11 08:57:59;;;;;;;5.18;2.78;;;;;;;2.18;100.00;100240.22;5116445;27;20134;-84
2022/02/11 09:00:26;;;;;;;8.88;3.05;;;;;;;2.13;100.00;100239.69;5114336;28;20047;-85
2022/02/11 09:02:53;;;;;;;9.00;3.08;;;;;;;2.27;100.00;100260.22;5114802;28;20071;-85
2022/02/11 09:05:21;;;;;;;17.17;3.95;;;;;;;2.28;100.00;100270.00;5114531;28;20055;-85
2022/02/11 09:07:48;;;;;;;6.20;2.78;;;;;;;2.28;100.00;100249.38;5113926;28;20048;-84
2022/02/11 09:10:16;;;;;;;9.55;2.97;;;;;;;2.30;100.00;100249.28;5112795;27;20477;-86
2022/02/11 09:12:45;;;;;;;5.05;2.72;;;;;;;2.37;100.00;100266.69;5114379;28;20136;-87
2022/02/11 09:15:14;;;;;;;10.02;3.33;;;;;;;2.45;100.00;100269.72;5109382;28;20134;-86
2022/02/11 09:17:41;;;;;;;7.63;3.13;;;;;;;2.45;100.00;100258.09;5113266;28;20055;-84
2022/02/11 09:20:10;;;;;;;9.25;2.67;;;;;;;2.38;100.00;100251.41;5115103;28;20048;-86
2022/02/11 09:22:37;;;;;;;18.33;4.68;;;;;;;2.51;100.00;100278.28;5113529;28;20039;-86
2022/02/11 09:25:04;;;;;;;8.68;2.65;;;;;;;2.46;100.00;100262.50;5112888;28;20123;-86
2022/02/11 09:27:33;;;;;;;6.82;3.03;;;;;;;2.59;100.00;100276.81;5113664;28;20535;-87
2022/02/11 09:29:59;;;;;;;20.90;3.83;;;;;;;2.63;100.00;100266.69;5111526;27;20487;-85
2022/02/11 09:32:26;;;;;;;16.83;3.58;;;;;;;2.71;100.00;100268.84;5107673;27;20043;-85
2022/02/11 09:34:53;;;;;;;14.77;5.93;;;;;;;2.64;100.00;100274.63;5102963;28;20089;-86
2022/02/11 09:37:20;;;;;;;10.43;3.70;;;;;;;2.66;100.00;100285.28;5111664;27;20051;-86
2022/02/11 09:39:49;;;;;;;6.72;2.72;;;;;;;2.61;100.00;100285.59;5107417;28;20055;-85
2022/02/11 09:42:17;;;;;;;4.05;2.80;;;;;;;2.81;100.00;100294.94;5112703;28;20414;-86
2022/02/11 09:44:46;;;;;;;16.95;3.60;;;;;;;2.88;100.00;100297.22;5112078;28;20544;-89
2022/02/11 09:47:13;;;;;;;35.70;4.75;;;;;;;2.77;100.00;100298.81;5116595;27;20792;-87
2022/02/11 09:49:44;;;;;;;16.05;3.28;;;;;;;2.99;100.00;100308.06;5104768;27;20135;-88
2022/02/11 09:52:12;;;;;;;6.85;2.83;;;;;;;2.83;100.00;100303.75;5110765;27;20083;-85
2022/02/11 09:54:38;;;;;;;9.73;3.00;;;;;;;2.97;100.00;100316.22;5129229;27;20149;-86
2022/02/11 09:57:05;;;;;;;19.70;4.03;;;;;;;2.96;100.00;100322.56;5113230;28;20055;-86
2022/02/11 09:59:32;;;;;;;17.35;3.70;;;;;;;3.09;100.00;100314.50;5113382;28;20497;-85
2022/02/11 10:02:01;;;;;;;4.95;2.30;;;;;;;3.06;100.00;100317.41;5112894;28;20574;-85
2022/02/11 10:04:27;;;;;;;11.77;3.33;;;;;;;3.13;100.00;100321.38;5112987;28;20047;-85
2022/02/11 10:06:59;;;;;;;5.85;2.30;;;;;;;3.17;100.00;100319.31;5113841;28;20052;-86
2022/02/11 10:09:26;;;;;;;11.13;3.03;;;;;;;3.37;100.00;100328.63;5099939;28;20059;-87
2022/02/11 10:11:55;;;;;;;8.52;2.78;;;;;;;3.46;100.00;100328.00;5110190;28;20130;-87
2022/02/11 10:14:26;;;;;;;8.57;2.73;;;;;;;3.59;100.00;100329.81;5099615;28;20044;-87
2022/02/11 10:16:58;;;;;;;13.95;2.47;;;;;;;3.46;98.33;100329.81;5108909;28;20054;-87
2022/02/11 10:19:55;;;;;;;5.97;2.47;;;;;;;3.68;99.99;100334.50;5094262;28;20048;-87
2022/02/11 10:22:27;;;;;;;10.52;1.95;;;;;;;3.77;96.63;100347.28;5064919;27;20054;-88
2022/02/11 10:24:58;;;;;;;13.15;2.38;;;;;;;3.80;96.22;100327.38;5099575;27;20547;-86
2022/02/11 10:27:27;;;;;;;6.60;2.53;;;;;;;4.08;94.04;100351.25;5099555;28;20055;-87
2022/02/11 10:30:01;;;;;;;5.60;2.28;;;;;;;4.26;96.51;100340.09;5099371;28;20062;-86
2022/02/11 10:32:43;;;;;;;4.00;1.75;;;;;;;4.42;91.92;100356.78;5103558;28;20040;-86
2022/02/11 10:35:18;;;;;;;3.63;1.73;;;;;;;4.43;92.18;100346.91;5110663;28;20042;-87
2022/02/11 10:38:04;;;;;;;6.13;2.00;;;;;;;4.63;87.74;100374.13;5113704;28;20077;-86
2022/02/11 10:40:34;;;;;;;12.23;2.10;;;;;;;4.61;90.15;100371.56;5103369;28;20138;-85
2022/02/11 10:43:01;;;;;;;4.32;1.85;;;;;;;4.54;89.08;100356.84;5108659;28;20043;-86
2022/02/11 10:45:37;;;;;;;10.43;2.15;;;;;;;4.44;89.82;100372.81;5109254;28;20044;-84
2022/02/11 10:48:20;;;;;;;5.18;1.95;;;;;;;4.42;92.61;100366.69;5091168;28;20078;-85
2022/02/11 10:51:00;;;;;;;10.50;2.20;;;;;;;4.28;92.93;100362.38;5106070;28;20040;-86
2022/02/11 10:53:29;;;;;;;3.80;2.10;;;;;;;4.31;93.90;100374.75;5117121;28;20055;-85
2022/02/11 10:56:00;;;;;;;8.57;2.00;;;;;;;4.24;92.87;100366.25;5110874;28;20044;-85
2022/02/11 10:58:28;;;;;;;15.35;2.33;;;;;;;4.15;92.35;100367.78;5091860;28;20159;-85
2022/02/11 11:01:00;;;;;;;7.00;2.13;;;;;;;4.27;94.22;100384.03;5101880;28;20096;-86
2022/02/11 11:03:29;;;;;;;8.75;2.88;;;;;;;4.04;94.36;100356.97;5112518;28;20059;-87
2022/02/11 11:06:02;;;;;;;7.15;1.92;;;;;;;4.17;95.78;100362.28;5116129;28;20436;-85
2022/02/11 11:08:34;;;;;;;4.22;2.00;;;;;;;4.19;93.22;100361.22;5097681;28;20661;-85
2022/02/11 11:11:04;;;;;;;10.98;2.80;;;;;;;4.21;92.05;100361.09;5123204;27;20047;-85
2022/02/11 11:13:33;;;;;;;19.40;3.95;;;;;;;4.16;96.48;100355.22;5116106;28;20056;-85
2022/02/11 11:16:01;;;;;;;51.78;9.85;;;;;;;4.28;95.26;100364.22;5114689;28;20047;-86
2022/02/11 11:18:28;;;;;;;34.08;5.15;;;;;;;4.36;94.33;100365.31;5113751;28;20139;-84
2022/02/11 11:20:56;;;;;;;14.82;3.20;;;;;;;4.27;91.58;100373.25;5114823;28;20091;-85
2022/02/11 11:23:27;;;;;;;6.78;2.58;;;;;;;4.22;93.72;100392.44;5114407;27;20045;-88
2022/02/11 11:26:01;;;;;;;8.30;3.17;;;;;;;4.12;92.27;100386.00;5109540;28;20402;-85
2022/02/11 11:28:45;;;;;;;13.75;3.33;;;;;;;3.86;91.31;100359.19;5115028;28;20482;-87
2022/02/11 11:31:18;;;;;;;10.88;3.40;;;;;;;4.17;94.91;100398.16;5115412;28;20440;-87
2022/02/11 11:33:45;;;;;;;7.95;2.35;;;;;;;4.23;93.98;100396.81;5114832;28;20048;-87
2022/02/11 11:36:17;;;;;;;8.48;2.90;;;;;;;4.25;93.95;100384.13;5115065;28;20047;-86
2022/02/11 11:38:58;;;;;;;4.95;2.33;;;;;;;4.36;94.71;100394.09;5129883;27;20074;-87
2022/02/11 11:41:29;;;;;;;9.80;2.90;;;;;;;4.27;90.88;100406.41;5126373;27;20052;-87
2022/02/11 11:43:59;;;;;;;2.95;1.52;;;;;;;4.21;89.75;100399.63;5112276;28;20097;-88
2022/02/11 11:46:36;;;;;;;3.55;1.70;;;;;;;4.34;91.07;100401.44;5114812;28;20052;-88
2022/02/11 11:49:11;;;;;;;8.85;2.92;;;;;;;4.13;90.07;100379.66;5115349;28;20048;-88
2022/02/11 11:52:15;;;;;;;4.65;1.98;;;;;;;4.20;89.57;100399.75;5115385;27;20045;-87
2022/02/11 11:54:43;;;;;;;7.25;2.22;;;;;;;4.21;91.98;100385.31;5114080;28;20107;-87
2022/02/11 11:57:14;;;;;;;10.30;2.60;;;;;;;4.19;92.39;100379.22;5115169;28;20059;-87
2022/02/11 11:59:45;;;;;;;11.55;2.28;;;;;;;4.28;92.39;100374.97;5108894;27;20079;-87
2022/02/11 12:02:16;;;;;;;8.00;3.15;;;;;;;4.12;90.04;100383.31;5106566;28;20130;-87
2022/02/11 12:04:57;;;;;;;4.57;2.30;;;;;;;4.20;90.86;100387.16;5114590;28;20048;-90
2022/02/11 12:07:25;;;;;;;6.43;2.50;;;;;;;4.16;90.79;100379.44;5105694;28;20052;-87
2022/02/11 12:09:55;;;;;;;7.90;2.50;;;;;;;4.28;90.52;100388.44;5096031;28;20052;-90
2022/02/11 12:12:27;;;;;;;3.42;1.75;;;;;;;4.40;89.97;100391.06;5107153;28;20146;-88
2022/02/11 12:14:55;;;;;;;3.78;2.10;;;;;;;4.50;88.78;100398.44;5102248;28;20084;-88
2022/02/11 12:17:22;;;;;;;5.68;2.22;;;;;;;4.34;89.74;100375.38;5108967;28;20475;-87
2022/02/11 12:19:51;;;;;;;9.23;2.20;;;;;;;4.52;89.20;100388.44;5106370;27;20055;-88
2022/02/11 12:22:20;;;;;;;11.82;1.95;;;;;;;4.45;88.99;100382.63;5102230;28;20043;-88
2022/02/11 12:27:38;;;;;;;4.78;2.40;;;;;;;4.39;87.34;100392.03;5114760;28;20057;-87
2022/02/11 12:30:15;;;;;;;5.35;1.95;;;;;;;4.44;88.83;100394.38;5110107;28;20052;-89
2022/02/11 12:32:44;;;;;;;7.15;2.00;;;;;;;4.41;89.95;100381.13;5091971;28;20052;-88
2022/02/11 12:35:12;;;;;;;15.38;2.40;;;;;;;4.36;89.50;100373.41;5105163;27;20039;-89
2022/02/11 12:37:44;;;;;;;6.35;2.58;;;;;;;4.47;90.43;100388.78;5132592;27;20151;-88
2022/02/11 12:40:13;;;;;;;9.73;2.42;;;;;;;4.54;89.06;100392.69;5106134;27;20384;-89
2022/02/11 12:42:43;;;;;;;7.80;2.63;;;;;;;4.59;89.79;100373.50;5111611;28;20035;-88
2022/02/11 12:45:12;;;;;;;11.00;2.22;;;;;;;4.67;88.35;100389.09;5111325;28;20052;-88
2022/02/11 12:47:41;;;;;;;8.30;2.63;;;;;;;4.56;90.49;100355.75;5111959;28;20123;-88
2022/02/11 12:53:25;;;;;;;10.20;2.05;;;;;;;5.03;86.48;100382.72;4989130;28;20047;-89
2022/02/11 12:55:55;;;;;;;9.02;2.30;;;;;;;5.03;86.00;100381.81;5055207;28;20093;-88
2022/02/11 12:58:24;;;;;;;8.32;2.20;;;;;;;5.10;84.97;100372.28;5112535;28;20452;-86
2022/02/11 13:00:51;;;;;;;2.75;1.73;;;;;;;5.38;81.72;100387.16;5091622;28;20273;-86
2022/02/11 13:03:20;;;;;;;5.05;1.92;;;;;;;5.09;83.27;100368.75;5091533;28;20541;-89
2022/02/11 13:05:53;;;;;;;18.60;3.70;;;;;;;5.52;83.84;100372.56;5103619;28;20067;-88
2022/02/11 13:08:45;;;;;;;3.63;1.73;;;;;;;5.57;81.19;100375.78;5103186;28;20050;-89
2022/02/11 13:11:27;;;;;;;6.78;2.42;;;;;;;5.60;82.00;100371.94;5100755;28;20498;-88
2022/02/11 13:14:07;;;;;;;5.78;1.88;;;;;;;5.85;81.43;100363.56;5110573;28;20500;-88
2022/02/11 13:16:40;;;;;;;1.50;1.40;;;;;;;5.70;79.41;100348.66;5112566;28;20135;-88
2022/02/11 13:19:15;;;;;;;7.07;2.38;;;;;;;5.61;80.68;100344.84;5111456;28;20169;-88
2022/02/11 13:21:48;;;;;;;6.30;2.40;;;;;;;5.57;80.29;100343.41;5112608;28;20055;-88
2022/02/11 13:24:16;;;;;;;5.72;2.33;;;;;;;5.55;81.35;100364.22;5111623;28;20055;-87
2022/02/11 13:27:09;;;;;;;6.45;2.00;;;;;;;5.64;79.15;100354.53;5110184;28;20040;-89
2022/02/11 13:30:34;;;;;;;3.92;1.15;;;;;;;5.50;76.91;100374.53;5090907;28;20060;-90
2022/02/11 13:44:06;;;;;;;;;;;;;;;;;;;;;
2022/02/11 13:49:51;;;;;;;4.63;1.50;;;;;;;5.46;76.39;100392.78;5107395;28;20571;-89
2022/02/11 13:55:06;;;;;;;1.90;1.33;;;;;;;5.20;79.76;100386.78;5111315;27;20621;-90
2022/02/11 13:57:38;;;;;;;4.07;1.48;;;;;;;5.32;78.62;100390.34;5103135;28;20040;-91
2022/02/11 14:00:31;;;;;;;4.93;1.80;;;;;;;5.39;79.90;100406.88;5109628;28;20075;-90
2022/02/11 14:03:07;;;;;;;3.58;1.92;;;;;;;5.39;79.97;100410.47;5110660;28;20110;-90
2022/02/11 14:05:49;;;;;;;9.50;1.90;;;;;;;5.54;80.01;100416.47;5111220;28;20097;-90
2022/02/11 14:08:17;;;;;;;3.72;1.50;;;;;;;5.31;78.87;100394.88;5111202;28;20039;-90
2022/02/11 14:10:53;;;;;;;5.05;1.83;;;;;;;5.47;78.04;100401.75;5111426;27;20050;-90
2022/02/11 14:13:25;;;;;;;3.55;1.70;;;;;;;5.58;78.26;100406.28;5093668;28;20487;-90
2022/02/11 14:15:52;;;;;;;4.38;1.92;;;;;;;5.48;76.23;100430.47;5097053;28;20588;-91
2022/02/11 14:18:18;;;;;;;2.50;1.58;;;;;;;5.22;77.76;100406.38;5103866;28;20102;-90
2022/02/11 14:20:47;;;;;;;5.57;2.33;;;;;;;5.16;78.92;100409.53;5112268;28;20142;-87
2022/02/11 14:23:15;;;;;;;7.05;1.80;;;;;;;4.92;79.48;100413.19;5112268;28;20047;-88
2022/02/11 14:25:43;;;;;;;2.70;1.60;;;;;;;4.77;79.25;100414.34;5112364;28;20439;-89
2022/02/11 14:28:12;;;;;;;4.28;2.22;;;;;;;4.94;81.97;100437.31;5108347;28;20487;-88
2022/02/11 14:30:40;;;;;;;5.43;1.80;;;;;;;4.78;82.17;100429.53;5110611;28;20082;-89
2022/02/11 14:33:07;;;;;;;5.28;2.40;;;;;;;4.71;83.05;100436.34;5110260;28;20054;-88
2022/02/11 14:35:43;;;;;;;6.47;2.83;;;;;;;4.72;82.57;100428.16;5108872;28;20078;-88
2022/02/11 14:38:30;;;;;;;6.13;2.30;;;;;;;4.65;83.63;100440.38;5111856;28;20562;-89
2022/02/11 14:43:49;;;;;;;7.05;2.00;;;;;;;4.68;83.54;100452.75;5046127;28;20509;-88
2022/02/11 14:46:16;;;;;;;5.30;2.00;;;;;;;4.57;83.61;100437.41;5099290;28;20055;-88
2022/02/11 14:48:44;;;;;;;3.38;1.77;;;;;;;4.70;82.73;100457.06;5089865;28;20487;-89
2022/02/11 14:51:11;;;;;;;8.85;1.88;;;;;;;4.63;81.87;100449.56;5090064;28;20055;-87
2022/02/11 14:53:39;;;;;;;7.32;2.28;;;;;;;4.49;82.70;100448.75;5101910;28;20067;-89
2022/02/11 14:56:07;;;;;;;8.82;2.50;;;;;;;4.46;81.70;100448.97;5109714;28;20063;-87
2022/02/11 14:58:37;;;;;;;6.80;2.10;;;;;;;4.55;81.84;100487.84;5109981;28;20143;-88
2022/02/11 15:01:05;;;;;;;5.82;2.08;;;;;;;4.45;87.05;100479.56;5106206;28;20127;-87
2022/02/11 15:03:33;;;;;;;3.08;1.70;;;;;;;4.24;94.13;100490.09;5108120;28;20044;-87
2022/02/11 15:06:00;;;;;;;2.90;1.45;;;;;;;3.75;99.84;100488.22;5109454;28;20052;-88
2022/02/11 15:08:29;;;;;;;7.60;1.77;;;;;;;3.32;100.00;100484.03;5117588;28;20392;-87
2022/02/11 15:10:57;;;;;;;3.33;1.48;;;;;;;3.09;100.00;100489.16;5106922;28;20051;-88
2022/02/11 15:13:24;;;;;;;3.65;1.38;;;;;;;3.10;100.00;100504.31;5109342;28;20732;-88
2022/02/11 15:15:51;;;;;;;3.28;1.27;;;;;;;2.75;100.00;100501.31;5108924;28;20047;-88
2022/02/11 15:18:18;;;;;;;3.33;1.02;;;;;;;2.79;100.00;100490.25;5103350;28;20443;-88
2022/02/11 15:20:45;;;;;;;1.80;1.17;;;;;;;3.00;100.00;100497.84;5109308;28;20050;-88
2022/02/11 15:23:12;;;;;;;4.97;1.63;;;;;;;2.98;100.00;100481.81;5122545;28;20043;-88
2022/02/11 15:25:39;;;;;;;2.95;1.50;;;;;;;2.88;100.00;100496.00;5110012;28;20093;-87
2022/02/11 15:28:08;;;;;;;4.18;1.45;;;;;;;2.99;100.00;100491.59;5107207;28;20063;-87